LOAV

Vöslau Airport

Bad Vöslau, Austria
TAF LOAV 210800Z 2109/2118 11004KT 9999 FEW300 BECMG 2114/2115 FEW050CB TEMPO 2117/2118 32015KT SHRA FEW040CB BKN050
Issued Valid From Valid To
Jun-21 @ 08:00 UTC
(2 hours ago)
Jun-21 @ 09:00 UTC
(an hour ago)
Jun-21 @ 18:00 UTC
(in 8 hours)
Jun-21 @ 09:00 to Jun-21 @ 14:00
TAF LOAV 210800Z 2109/2118 11004KT 9999 FEW300
Wind Visibility Clouds
110° at 4 knots 10,000+ meters
  • Few at 30,000' AGL
Becoming Jun-21 @ 14:00 to Jun-21 @ 18:00
BECMG 2114/2115 FEW050CB
Wind Visibility Clouds
110° at 4 knots 10,000+ meters
  • Few at 5,000' AGL
Temporary Jun-21 @ 17:00 to Jun-21 @ 18:00
TEMPO 2117/2118 32015KT SHRA FEW040CB BKN050
Wind Clouds Conditions
320° at 15 knots
  • Few at 4,000' AGL
  • Broken at 5,000' AGL
  • Rain
TAF LOAV 210800Z 2109/2118 11004KT 9999 FEW300 BECMG 2114/2115 FEW050CB TEMPO 2117/2118 32015KT SHRA FEW040CB BKN050
Issued Jun-21 @ 08:00 UTC
(2 hours ago)
Valid From Jun-21 @ 09:00 UTC
(an hour ago)
Valid To Jun-21 @ 18:00 UTC
(in 8 hours)
Jun-21 @ 09:00 - Jun-21 @ 14:00
Wind Visibility
110° at 4 knots 10,000+ meters
Clouds
  • Few at 30,000' AGL
Becoming Jun-21 @ 14:00 - Jun-21 @ 18:00
Wind Visibility
110° at 4 knots 10,000+ meters
Clouds
  • Few at 5,000' AGL
Temporary Jun-21 @ 17:00 - Jun-21 @ 18:00
Wind
320° at 15 knots
Clouds
  • Few at 4,000' AGL
  • Broken at 5,000' AGL
Conditions
  • Rain